Time;durP1;ratioP1;P1;durP2;ratioP2;P2;SDS_P1;SDS_P2;PMS_P1;PMS_P2;Temp;Humidity;BMP_temperature;BMP_pressure;BME280_temperature;BME280_humidity;BME280_pressure;Samples;Min_cycle;Max_cycle;Signal;HPM_P1;HPM_P2
2022/11/13 00:00:27;;;;;;;929.17;865.65;;;;;;;10.50;72.69;102694.56;688717;28;138664;-63
2022/11/13 00:01:09;;;;;;;931.38;867.55;;;;;;;10.48;72.65;102699.22;689193;28;138329;-63
2022/11/13 00:01:51;;;;;;;930.60;866.80;;;;;;;10.50;72.75;102697.28;691262;28;136004;-64
2022/11/13 00:02:32;;;;;;;934.75;871.03;;;;;;;10.50;72.82;102697.28;691426;28;137093;-64
2022/11/13 00:03:12;;;;;;;912.33;849.22;;;;;;;10.51;72.92;102700.81;691479;28;137795;-64
2022/11/13 00:03:52;;;;;;;937.17;873.25;;;;;;;10.50;72.94;102691.00;690446;28;139018;-63
2022/11/13 00:04:32;;;;;;;908.70;845.70;;;;;;;10.50;73.00;102694.56;690737;28;158956;-64
2022/11/13 00:05:12;;;;;;;915.35;852.15;;;;;;;10.51;73.17;102696.28;691480;28;137951;-63
2022/11/13 00:05:58;;;;;;;936.72;872.83;;;;;;;10.52;73.15;102686.34;691114;28;137565;-63
2022/11/13 00:06:39;;;;;;;927.45;863.88;;;;;;;10.50;73.49;102688.28;691392;28;137369;-64
2022/11/13 00:07:20;;;;;;;926.05;862.15;;;;;;;10.52;73.23;102676.38;691176;28;135630;-64
2022/11/13 00:08:00;;;;;;;927.42;864.10;;;;;;;10.53;73.36;102680.81;691313;28;136842;-64
2022/11/13 00:08:42;;;;;;;928.30;864.83;;;;;;;10.51;73.27;102674.66;690847;28;138715;-64
2022/11/13 00:09:22;;;;;;;934.13;870.40;;;;;;;10.56;73.06;102682.38;688770;28;136008;-65
2022/11/13 00:10:03;;;;;;;906.35;843.53;;;;;;;10.55;73.30;102681.53;688700;28;135916;-64
2022/11/13 00:10:43;;;;;;;931.97;868.25;;;;;;;10.57;73.44;102678.69;688512;28;137458;-65
2022/11/13 00:11:22;;;;;;;920.08;856.83;;;;;;;10.55;72.97;102672.53;689768;28;160458;-65
2022/11/13 00:12:03;;;;;;;932.35;868.70;;;;;;;10.58;73.05;102683.09;691380;28;137725;-65
2022/11/13 00:12:43;;;;;;;926.45;862.95;;;;;;;10.57;73.22;102676.84;691290;28;138306;-65
2022/11/13 00:13:25;;;;;;;912.13;849.10;;;;;;;10.59;73.04;102679.41;691311;28;138650;-65
2022/11/13 00:14:06;;;;;;;936.42;872.63;;;;;;;10.59;73.21;102682.13;690336;28;156219;-64
2022/11/13 00:14:46;;;;;;;927.38;863.83;;;;;;;10.60;73.03;102682.00;691121;28;137307;-65
2022/11/13 00:15:25;;;;;;;914.10;850.83;;;;;;;10.61;73.30;102683.72;691206;28;137445;-65
2022/11/13 00:16:09;;;;;;;919.80;856.43;;;;;;;10.60;73.40;102673.88;690437;28;158726;-65
2022/11/13 00:16:49;;;;;;;933.22;869.50;;;;;;;10.60;73.42;102683.84;691213;28;137337;-65
2022/11/13 00:17:30;;;;;;;903.60;840.92;;;;;;;10.61;73.06;102685.53;688728;28;135973;-65
2022/11/13 00:18:09;;;;;;;913.38;850.28;;;;;;;10.55;73.13;102676.13;688623;28;137773;-65
2022/11/13 00:18:50;;;;;;;919.53;856.20;;;;;;;10.63;73.19;102680.88;688008;28;137736;-65
2022/11/13 00:19:30;;;;;;;925.97;862.55;;;;;;;10.63;73.39;102676.31;688816;28;137532;-65
2022/11/13 00:20:10;;;;;;;926.80;863.33;;;;;;;10.66;73.08;102685.16;687880;28;159949;-65
2022/11/13 00:20:51;;;;;;;913.40;850.22;;;;;;;10.67;73.16;102679.63;688331;28;136027;-65
2022/11/13 00:21:30;;;;;;;914.25;851.22;;;;;;;10.67;73.47;102684.19;688666;28;137698;-65
2022/11/13 00:22:14;;;;;;;923.90;860.47;;;;;;;10.69;73.07;102682.19;690629;28;135997;-65
2022/11/13 00:22:55;;;;;;;934.42;870.65;;;;;;;10.71;73.50;102688.34;691053;28;138845;-65
2022/11/13 00:23:36;;;;;;;892.92;830.50;;;;;;;10.72;73.01;102687.34;690107;28;160423;-64
2022/11/13 00:24:19;;;;;;;927.25;863.78;;;;;;;10.73;72.88;102689.91;691500;28;135984;-65
2022/11/13 00:24:58;;;;;;;911.53;848.53;;;;;;;10.73;73.35;102689.91;691238;28;137651;-64
2022/11/13 00:25:38;;;;;;;924.33;861.03;;;;;;;10.74;73.47;102691.63;688714;28;136242;-65
2022/11/13 00:26:20;;;;;;;911.47;848.53;;;;;;;10.73;73.15;102687.22;688503;28;136004;-65
2022/11/13 00:27:00;;;;;;;922.50;858.95;;;;;;;10.75;72.98;102687.06;687859;28;137620;-65
2022/11/13 00:27:41;;;;;;;923.85;860.38;;;;;;;10.74;73.39;102691.63;688649;28;137634;-65
2022/11/13 00:28:21;;;;;;;901.33;838.63;;;;;;;10.75;73.33;102693.34;688666;28;137557;-65
2022/11/13 00:29:03;;;;;;;925.85;862.38;;;;;;;10.75;72.76;102690.66;686914;28;180277;-65
2022/11/13 00:29:43;;;;;;;929.55;866.00;;;;;;;10.75;73.30;102685.25;688698;28;137406;-65
2022/11/13 00:30:23;;;;;;;927.03;863.53;;;;;;;10.75;73.31;102687.06;688732;28;136075;-65
2022/11/13 00:31:04;;;;;;;911.90;848.92;;;;;;;10.75;73.01;102682.56;688679;28;137292;-65
2022/11/13 00:31:45;;;;;;;929.60;865.97;;;;;;;10.76;73.40;102689.66;689843;28;137892;-65
2022/11/13 00:32:28;;;;;;;932.22;868.63;;;;;;;10.76;73.05;102683.41;694104;28;60958;-65
2022/11/13 00:33:08;;;;;;;914.25;851.17;;;;;;;10.74;73.10;102679.97;691387;28;137561;-65
2022/11/13 00:33:48;;;;;;;923.67;860.35;;;;;;;10.77;72.91;102685.13;688199;28;138340;-65
2022/11/13 00:34:28;;;;;;;924.30;861.00;;;;;;;10.77;73.35;102677.00;688735;28;137504;-65
2022/11/13 00:35:17;;;;;;;906.72;843.83;;;;;;;10.76;73.03;102681.53;688630;28;137711;-65
2022/11/13 00:36:03;;;;;;;916.97;853.75;;;;;;;10.77;73.27;102675.16;688568;28;135979;-65
2022/11/13 00:36:43;;;;;;;937.20;873.40;;;;;;;10.78;73.22;102676.88;690189;28;137423;-65
2022/11/13 00:37:23;;;;;;;922.88;859.30;;;;;;;10.75;73.48;102677.16;691128;28;137448;-64
2022/11/13 00:38:02;;;;;;;925.03;861.58;;;;;;;10.78;73.26;102682.28;688555;28;138175;-65
2022/11/13 00:38:44;;;;;;;925.15;861.75;;;;;;;10.78;73.15;102676.00;688211;28;136970;-64
2022/11/13 00:39:25;;;;;;;938.17;874.33;;;;;;;10.77;73.16;102677.88;688719;28;137380;-65
2022/11/13 00:40:06;;;;;;;918.47;855.25;;;;;;;10.78;73.25;102682.28;688557;28;138475;-65
2022/11/13 00:40:46;;;;;;;919.22;855.97;;;;;;;10.78;73.33;102684.13;688571;28;137641;-65
2022/11/13 00:41:27;;;;;;;918.83;855.72;;;;;;;10.79;73.23;102677.72;687991;28;160491;-65
2022/11/13 00:42:07;;;;;;;926.40;862.83;;;;;;;10.79;73.60;102683.97;688674;28;138140;-65
2022/11/13 00:42:47;;;;;;;907.95;845.25;;;;;;;10.81;73.68;102681.16;688585;28;135567;-65
2022/11/13 00:43:27;;;;;;;936.75;873.08;;;;;;;10.82;73.51;102677.47;688011;28;160936;-63
2022/11/13 00:44:07;;;;;;;921.67;858.33;;;;;;;10.77;73.29;102666.19;687840;28;157107;-65
2022/11/13 00:44:47;;;;;;;918.13;854.92;;;;;;;10.83;73.41;102681.91;690692;28;138679;-64
2022/11/13 00:45:27;;;;;;;914.72;851.63;;;;;;;10.84;73.23;102680.03;691404;28;135592;-63
2022/11/13 00:46:07;;;;;;;931.60;867.93;;;;;;;10.86;73.22;102678.06;690714;28;159547;-64
2022/11/13 00:46:50;;;;;;;936.33;872.53;;;;;;;10.82;73.24;102681.03;694455;28;61334;-63
2022/11/13 00:47:30;;;;;;;926.90;863.35;;;;;;;10.87;73.50;102677.06;691809;28;137731;-64
2022/11/13 00:48:10;;;;;;;913.22;850.15;;;;;;;10.88;73.29;102674.25;694061;28;135923;-63
2022/11/13 00:48:50;;;;;;;927.25;863.75;;;;;;;10.90;73.27;102679.53;694161;28;138312;-64
2022/11/13 00:49:30;;;;;;;921.63;858.33;;;;;;;10.91;73.11;102673.09;694459;28;137553;-64
2022/11/13 00:50:10;;;;;;;925.00;861.55;;;;;;;10.92;73.42;102674.81;691851;28;137364;-64
2022/11/13 00:50:51;;;;;;;917.88;854.67;;;;;;;10.92;73.17;102672.13;691770;28;135996;-65
2022/11/13 00:51:31;;;;;;;908.72;846.03;;;;;;;10.94;72.83;102671.00;692002;28;136038;-64
2022/11/13 00:52:12;;;;;;;934.50;870.90;;;;;;;10.95;73.31;102674.56;691936;28;137072;-65
2022/11/13 00:52:51;;;;;;;916.67;853.33;;;;;;;10.95;73.27;102667.31;691350;28;137415;-63
2022/11/13 00:53:33;;;;;;;914.88;851.80;;;;;;;10.96;72.85;102671.72;694642;28;60759;-65
2022/11/13 00:54:13;;;;;;;933.72;869.95;;;;;;;10.97;73.23;102667.16;691157;28;156317;-65
2022/11/13 00:54:54;;;;;;;912.78;849.67;;;;;;;10.99;73.04;102671.47;689004;28;137712;-64
2022/11/13 00:55:34;;;;;;;910.90;847.97;;;;;;;11.00;72.98;102678.59;689274;28;136121;-65
2022/11/13 00:56:14;;;;;;;922.80;859.45;;;;;;;11.00;73.00;102666.91;689015;28;137542;-65
2022/11/13 00:56:55;;;;;;;911.95;848.97;;;;;;;11.02;73.12;102675.75;688596;28;137435;-64
2022/11/13 00:57:34;;;;;;;920.88;857.53;;;;;;;11.02;72.89;102662.25;689170;28;137245;-63
2022/11/13 00:58:14;;;;;;;910.72;847.72;;;;;;;11.04;72.66;102664.81;688960;28;137286;-63
2022/11/13 00:58:55;;;;;;;921.85;858.50;;;;;;;11.03;72.92;102663.09;688134;28;156175;-64
2022/11/13 00:59:35;;;;;;;917.22;854.00;;;;;;;11.05;73.00;102667.38;688869;28;137404;-63
2022/11/13 01:00:17;;;;;;;921.33;858.00;;;;;;;11.03;72.63;102661.22;688968;28;135998;-62
2022/11/13 01:01:03;;;;;;;914.08;851.10;;;;;;;11.03;72.80;102657.69;689044;28;137589;-63
2022/11/13 01:01:43;;;;;;;925.03;861.53;;;;;;;11.05;73.10;102664.69;688912;28;138356;-63
2022/11/13 01:02:23;;;;;;;933.40;869.72;;;;;;;11.03;72.91;102655.81;689098;28;137266;-63
2022/11/13 01:03:04;;;;;;;913.20;850.17;;;;;;;10.98;72.76;102650.81;688265;28;160667;-63
2022/11/13 01:03:45;;;;;;;906.13;843.33;;;;;;;11.06;72.62;102668.22;688717;28;138019;-63
2022/11/13 01:04:24;;;;;;;923.65;860.28;;;;;;;11.06;72.99;102660.97;693584;28;73946;-62
2022/11/13 01:05:05;;;;;;;921.67;858.30;;;;;;;11.07;72.60;102659.13;691853;28;136027;-63
2022/11/13 01:05:46;;;;;;;916.33;853.17;;;;;;;11.09;72.49;102654.44;691760;28;137563;-63
2022/11/13 01:06:27;;;;;;;927.35;863.95;;;;;;;11.10;72.63;102664.28;691882;28;137706;-64
2022/11/13 01:07:07;;;;;;;916.08;852.65;;;;;;;11.08;72.48;102650.00;691307;28;138266;-64
2022/11/13 01:07:47;;;;;;;930.33;866.67;;;;;;;11.11;72.50;102652.44;689139;28;137296;-64
2022/11/13 01:08:27;;;;;;;914.72;851.70;;;;;;;11.10;72.67;102645.34;689199;28;137186;-64
2022/11/13 01:09:08;;;;;;;931.40;867.72;;;;;;;11.12;72.45;102648.78;689030;28;157132;-63
2022/11/13 01:09:49;;;;;;;910.58;847.80;;;;;;;11.12;72.44;102646.91;691833;28;135885;-64
2022/11/13 01:10:30;;;;;;;929.05;865.55;;;;;;;11.13;72.70;102648.63;691823;28;135979;-63
2022/11/13 01:11:13;;;;;;;914.67;851.50;;;;;;;11.14;72.39;102647.66;689300;28;137388;-64
2022/11/13 01:11:53;;;;;;;910.08;847.05;;;;;;;11.12;72.33;102644.22;691605;28;137593;-64
2022/11/13 01:12:33;;;;;;;917.22;854.15;;;;;;;11.16;72.30;102644.81;690973;28;160597;-64
2022/11/13 01:13:16;;;;;;;919.13;855.88;;;;;;;11.14;72.28;102641.38;691904;28;137617;-64
2022/11/13 01:13:56;;;;;;;931.33;867.65;;;;;;;11.12;72.49;102644.22;690871;28;157104;-64
2022/11/13 01:14:36;;;;;;;919.20;855.97;;;;;;;11.15;72.84;102643.09;691013;28;160413;-64
2022/11/13 01:15:17;;;;;;;932.28;868.63;;;;;;;11.14;72.28;102639.53;691844;28;135757;-64
2022/11/13 01:15:57;;;;;;;922.30;858.92;;;;;;;11.16;72.10;102644.81;691805;28;135968;-63
2022/11/13 01:16:38;;;;;;;939.20;875.30;;;;;;;11.16;72.30;102647.53;691771;28;137256;-64
2022/11/13 01:17:17;;;;;;;911.70;848.83;;;;;;;11.15;72.58;102641.22;693275;28;137405;-65
2022/11/13 01:17:57;;;;;;;926.13;862.80;;;;;;;11.15;72.79;102643.94;694596;28;137353;-64
2022/11/13 01:18:38;;;;;;;916.28;853.22;;;;;;;11.18;72.37;102650.94;694076;28;137545;-64
2022/11/13 01:19:17;;;;;;;920.50;857.20;;;;;;;11.16;72.68;102648.38;691756;28;137677;-64
2022/11/13 01:19:58;;;;;;;938.53;874.70;;;;;;;11.16;72.72;102642.97;691794;28;137764;-62
2022/11/13 01:20:38;;;;;;;929.22;865.65;;;;;;;11.16;72.39;102647.53;690779;28;160689;-64
2022/11/13 01:21:19;;;;;;;933.60;869.97;;;;;;;11.18;72.87;102648.22;689068;28;137578;-63
2022/11/13 01:22:00;;;;;;;915.78;852.67;;;;;;;11.21;72.33;102641.69;689065;28;135995;-62
2022/11/13 01:22:40;;;;;;;939.70;875.80;;;;;;;11.18;72.54;102632.00;688834;28;136252;-64
2022/11/13 01:23:21;;;;;;;936.25;872.55;;;;;;;11.22;72.54;102652.38;689098;28;135893;-64
2022/11/13 01:24:00;;;;;;;910.33;847.42;;;;;;;11.23;72.26;102648.69;688069;28;157158;-64
2022/11/13 01:24:40;;;;;;;924.42;861.10;;;;;;;11.16;72.21;102634.84;689060;28;137375;-63
2022/11/13 01:25:21;;;;;;;921.90;858.65;;;;;;;11.25;72.02;102645.84;688995;28;137203;-64
2022/11/13 01:26:07;;;;;;;921.95;858.70;;;;;;;11.25;71.94;102645.84;689071;28;136088;-64
2022/11/13 01:26:48;;;;;;;934.00;870.45;;;;;;;11.26;72.37;102636.75;688915;28;135756;-64
2022/11/13 01:27:28;;;;;;;930.10;866.47;;;;;;;11.22;71.92;102629.88;688786;28;137629;-64
2022/11/13 01:28:08;;;;;;;921.03;857.60;;;;;;;11.27;72.03;102642.03;689749;28;137511;-64
2022/11/13 01:28:49;;;;;;;935.47;871.67;;;;;;;11.25;72.00;102635.88;689979;28;137796;-64
2022/11/13 01:29:28;;;;;;;906.20;843.38;;;;;;;11.26;72.04;102644.84;688901;28;137802;-64
2022/11/13 01:30:10;;;;;;;916.85;853.65;;;;;;;11.28;71.80;102637.47;689054;28;138050;-64
2022/11/13 01:30:50;;;;;;;927.65;864.10;;;;;;;11.27;72.18;102635.72;688980;28;137373;-64
2022/11/13 01:31:31;;;;;;;913.60;850.47;;;;;;;11.26;72.38;102643.00;688786;28;135233;-64
2022/11/13 01:32:11;;;;;;;927.58;864.00;;;;;;;11.25;72.12;102632.31;688170;28;160171;-63
2022/11/13 01:32:51;;;;;;;924.13;860.72;;;;;;;11.28;72.11;102643.72;692013;28;137454;-64
2022/11/13 01:33:40;;;;;;;927.85;864.42;;;;;;;11.29;72.23;102633.78;696722;28;60840;-64
2022/11/13 01:34:20;;;;;;;912.67;849.67;;;;;;;11.29;72.30;102644.59;694506;28;138689;-64
2022/11/13 01:35:01;;;;;;;925.85;862.50;;;;;;;11.30;71.91;102641.75;694427;28;137836;-64
2022/11/13 01:35:41;;;;;;;926.90;863.35;;;;;;;11.30;72.29;102643.56;692159;28;137243;-64
2022/11/13 01:36:22;;;;;;;927.15;863.75;;;;;;;11.30;71.96;102649.00;691614;28;137377;-64
2022/11/13 01:37:03;;;;;;;901.85;838.88;;;;;;;11.31;71.83;102646.16;691064;28;137706;-63
2022/11/13 01:37:43;;;;;;;928.13;864.60;;;;;;;11.30;72.22;102644.47;689174;28;137707;-63
2022/11/13 01:38:23;;;;;;;922.72;859.47;;;;;;;11.31;71.83;102642.59;689036;28;135568;-64
2022/11/13 01:39:04;;;;;;;925.15;861.78;;;;;;;11.32;71.91;102641.63;688212;28;157314;-64
2022/11/13 01:39:44;;;;;;;917.70;854.58;;;;;;;11.31;72.11;102640.75;688985;28;137387;-64
2022/11/13 01:40:23;;;;;;;920.40;857.25;;;;;;;11.31;72.22;102643.44;692843;28;137601;-64
2022/11/13 01:41:06;;;;;;;917.47;854.30;;;;;;;11.31;72.17;102642.59;694205;28;137913;-64
2022/11/13 01:41:46;;;;;;;929.22;865.80;;;;;;;11.31;72.34;102642.59;693288;28;161235;-64
2022/11/13 01:42:27;;;;;;;930.63;867.08;;;;;;;11.31;72.28;102634.47;691640;28;137589;-64
2022/11/13 01:43:23;;;;;;;916.10;853.05;;;;;;;11.31;72.30;102634.47;689207;28;137377;-63
2022/11/13 01:44:04;;;;;;;904.58;841.85;;;;;;;11.31;72.29;102642.59;688047;28;156029;-64
2022/11/13 01:44:46;;;;;;;943.63;879.63;;;;;;;11.29;72.09;102637.31;689935;28;160335;-63
2022/11/13 01:46:06;;;;;;;916.22;853.03;;;;;;;11.31;72.06;102634.47;694438;28;62455;-64
2022/11/13 01:46:48;;;;;;;927.25;863.80;;;;;;;11.31;71.56;102639.91;694516;28;137582;-64
2022/11/13 01:47:29;;;;;;;918.05;854.80;;;;;;;11.33;71.98;102635.19;688973;28;137694;-64
2022/11/13 01:48:09;;;;;;;936.92;873.05;;;;;;;11.34;71.56;102636.91;688767;28;136017;-64
2022/11/13 01:48:51;;;;;;;921.63;858.30;;;;;;;11.35;71.39;102634.06;688575;28;137285;-64
2022/11/13 01:49:35;;;;;;;936.85;873.13;;;;;;;11.36;71.94;102634.91;689062;28;137802;-63
2022/11/13 01:50:15;;;;;;;921.45;858.20;;;;;;;11.35;71.56;102639.47;688786;28;137561;-64
2022/11/13 01:50:54;;;;;;;927.42;863.95;;;;;;;11.36;71.63;102632.22;688987;28;137757;-63
2022/11/13 01:51:39;;;;;;;917.10;854.13;;;;;;;11.35;71.94;102628.66;689028;28;137539;-64
2022/11/13 01:52:22;;;;;;;918.42;855.42;;;;;;;11.36;71.96;102627.69;688274;28;160970;-64
2022/11/13 01:53:02;;;;;;;911.40;848.40;;;;;;;11.36;71.60;102624.97;689034;28;137686;-64
2022/11/13 01:53:46;;;;;;;921.97;858.63;;;;;;;11.39;71.69;102631.09;692337;28;63640;-64
2022/11/13 01:54:27;;;;;;;926.38;862.95;;;;;;;11.37;71.96;102620.41;691515;28;137968;-64
2022/11/13 01:55:11;;;;;;;909.47;846.60;;;;;;;11.38;71.13;102624.84;691453;28;138554;-64
2022/11/13 01:55:51;;;;;;;935.25;871.53;;;;;;;11.36;71.74;102616.00;691523;28;135943;-64
2022/11/13 01:56:32;;;;;;;914.92;851.80;;;;;;;11.40;71.18;102625.56;690917;28;160451;-64
2022/11/13 01:57:14;;;;;;;930.83;867.05;;;;;;;11.40;71.51;102625.56;690266;28;158855;-64
2022/11/13 01:57:54;;;;;;;922.08;858.80;;;;;;;11.39;71.29;102620.28;691284;28;137672;-64
2022/11/13 01:58:37;;;;;;;932.10;868.55;;;;;;;11.36;71.28;102616.88;693806;28;62394;-64
2022/11/13 01:59:20;;;;;;;924.55;861.28;;;;;;;11.41;71.20;102624.56;691788;28;135994;-63
2022/11/13 02:00:03;;;;;;;925.72;862.42;;;;;;;11.44;71.08;102621.59;691727;28;137625;-64
2022/11/13 02:00:44;;;;;;;914.33;851.47;;;;;;;11.46;70.66;102619.59;691689;28;136783;-64
2022/11/13 02:01:24;;;;;;;922.50;859.20;;;;;;;11.45;70.60;102612.47;691776;28;137941;-64
2022/11/13 02:02:04;;;;;;;922.53;859.28;;;;;;;11.44;70.57;102609.91;691738;28;137861;-63
2022/11/13 02:02:44;;;;;;;916.58;853.47;;;;;;;11.43;70.74;102600.09;689720;28;137729;-64
2022/11/13 02:03:24;;;;;;;927.15;863.75;;;;;;;11.49;70.92;102622.03;692469;28;137728;-64
2022/11/13 02:04:05;;;;;;;918.47;855.25;;;;;;;11.49;70.79;102613.06;690734;28;157142;-64
2022/11/13 02:04:45;;;;;;;923.67;860.35;;;;;;;11.50;70.52;102617.47;688859;28;137734;-64
2022/11/13 02:05:24;;;;;;;921.83;858.55;;;;;;;11.45;70.62;102604.34;688902;28;137493;-63
2022/11/13 02:06:06;;;;;;;920.20;857.03;;;;;;;11.51;70.56;102616.47;688829;28;137454;-63
2022/11/13 02:06:47;;;;;;;917.80;854.67;;;;;;;11.53;70.81;102614.50;688777;28;137848;-64
2022/11/13 02:07:28;;;;;;;910.08;847.15;;;;;;;11.52;70.36;102610.94;689312;28;137735;-64
2022/11/13 02:08:08;;;;;;;936.15;872.35;;;;;;;11.53;70.71;102615.34;692348;28;136984;-64
2022/11/13 02:08:50;;;;;;;925.83;862.42;;;;;;;11.53;70.76;102617.19;693764;28;137480;-64
2022/11/13 02:09:36;;;;;;;920.10;856.88;;;;;;;11.53;70.73;102619.91;693510;28;60062;-64
2022/11/13 02:10:17;;;;;;;930.72;867.10;;;;;;;11.52;70.81;102612.78;690252;28;160709;-63
2022/11/13 02:10:56;;;;;;;925.95;862.47;;;;;;;11.50;70.62;102614.75;691424;28;138614;-64
2022/11/13 02:11:38;;;;;;;914.95;851.83;;;;;;;11.52;70.66;102610.94;688813;28;137930;-64
2022/11/13 02:12:24;;;;;;;920.72;857.45;;;;;;;11.50;71.03;102607.53;688911;28;137524;-64
2022/11/13 02:13:04;;;;;;;919.80;856.53;;;;;;;11.49;71.10;102608.50;688876;28;135987;-63
2022/11/13 02:13:45;;;;;;;921.17;857.90;;;;;;;11.50;71.20;102607.53;687576;28;161676;-64
2022/11/13 02:14:28;;;;;;;933.83;870.15;;;;;;;11.46;70.99;102589.00;688903;28;138735;-63
2022/11/13 02:15:08;;;;;;;927.03;863.53;;;;;;;11.48;71.08;102604.06;688876;28;137648;-64
2022/11/13 02:15:49;;;;;;;909.15;846.25;;;;;;;11.49;71.13;102607.66;688922;28;135999;-63
2022/11/13 02:16:30;;;;;;;936.80;873.13;;;;;;;11.50;70.80;102601.22;688824;28;138320;-64
2022/11/13 02:17:13;;;;;;;909.63;846.55;;;;;;;11.50;70.71;102610.22;687488;28;161022;-64
2022/11/13 02:17:54;;;;;;;929.15;865.55;;;;;;;11.49;70.71;102604.94;688012;28;161817;-64
2022/11/13 02:18:36;;;;;;;922.13;858.78;;;;;;;11.51;71.03;102611.91;688476;28;137512;-64
2022/11/13 02:19:25;;;;;;;929.33;865.72;;;;;;;11.52;70.64;102610.94;690830;28;135593;-64
2022/11/13 02:20:06;;;;;;;937.63;873.70;;;;;;;11.54;70.34;102605.38;688507;28;160495;-64
2022/11/13 02:20:52;;;;;;;932.28;868.63;;;;;;;11.52;70.58;102599.25;688918;28;136558;-64
2022/11/13 02:21:36;;;;;;;917.97;854.90;;;;;;;11.54;70.27;102595.41;688798;28;135881;-64
2022/11/13 02:22:22;;;;;;;932.60;868.83;;;;;;;11.58;69.73;102603.25;688821;28;137941;-65
2022/11/13 02:23:06;;;;;;;922.15;858.70;;;;;;;11.59;70.48;102602.28;687894;28;160027;-64
2022/11/13 02:23:52;;;;;;;923.20;859.88;;;;;;;11.59;70.10;102588.72;688347;28;136028;-63
2022/11/13 02:24:35;;;;;;;922.30;859.15;;;;;;;11.59;70.51;102595.00;688868;28;137500;-63
2022/11/13 02:25:16;;;;;;;915.05;852.13;;;;;;;11.57;70.37;102593.41;688778;28;137607;-63
2022/11/13 02:25:57;;;;;;;935.70;871.95;;;;;;;11.58;70.34;102601.38;688726;28;137749;-64
2022/11/13 02:26:37;;;;;;;916.67;853.58;;;;;;;11.58;70.63;102595.97;688793;28;137635;-63
2022/11/13 02:27:21;;;;;;;947.55;883.25;;;;;;;11.59;70.27;102602.28;688578;28;137518;-63
2022/11/13 02:28:00;;;;;;;939.88;875.97;;;;;;;11.56;70.59;102591.72;688673;28;137815;-64
2022/11/13 02:28:40;;;;;;;939.80;875.85;;;;;;;11.59;70.45;102602.28;688332;28;137724;-64
2022/11/13 02:29:21;;;;;;;928.35;864.83;;;;;;;11.59;70.26;102596.84;690540;28;137490;-64
2022/11/13 02:30:11;;;;;;;926.05;862.47;;;;;;;11.58;70.21;102604.09;690583;28;158912;-64
2022/11/13 02:30:51;;;;;;;932.28;868.55;;;;;;;11.58;70.71;102597.84;692555;28;136046;-64
2022/11/13 02:31:32;;;;;;;918.35;855.25;;;;;;;11.59;70.79;102602.28;694116;28;137653;-64
2022/11/13 02:32:12;;;;;;;928.15;864.65;;;;;;;11.57;70.47;102599.69;694061;28;138609;-64
2022/11/13 02:32:54;;;;;;;915.30;852.33;;;;;;;11.56;70.41;102606.09;694369;28;135950;-64
2022/11/13 02:33:35;;;;;;;929.50;866.10;;;;;;;11.58;70.72;102603.25;692985;28;159565;-63
2022/11/13 02:34:14;;;;;;;927.20;863.78;;;;;;;11.55;70.83;102596.25;694218;28;137582;-64
2022/11/13 02:34:55;;;;;;;929.55;866.05;;;;;;;11.57;70.76;102597.00;694237;28;137538;-64
2022/11/13 02:35:36;;;;;;;920.10;856.92;;;;;;;11.55;70.73;102582.72;691568;28;137840;-64
2022/11/13 02:36:17;;;;;;;941.00;877.05;;;;;;;11.59;70.49;102599.56;690601;28;158918;-64
2022/11/13 02:36:58;;;;;;;919.92;856.53;;;;;;;11.60;70.53;102594.00;690840;28;138352;-64
2022/11/13 02:37:38;;;;;;;921.83;858.53;;;;;;;11.57;70.34;102588.00;689799;28;137810;-64
2022/11/13 02:38:17;;;;;;;936.22;872.50;;;;;;;11.59;70.35;102592.28;688615;28;136016;-65
2022/11/13 02:39:01;;;;;;;920.45;857.25;;;;;;;11.60;70.60;102601.25;690678;28;157307;-65
2022/11/13 02:39:43;;;;;;;925.22;861.72;;;;;;;11.56;70.64;102587.16;690767;28;138024;-65
2022/11/13 02:40:24;;;;;;;943.42;879.33;;;;;;;11.60;70.83;102590.44;688761;28;138343;-65
2022/11/13 02:41:04;;;;;;;936.13;872.58;;;;;;;11.60;70.32;102594.00;688705;28;136001;-64
2022/11/13 02:41:44;;;;;;;912.60;849.67;;;;;;;11.58;70.44;102585.16;688673;28;137753;-64
2022/11/13 02:42:24;;;;;;;932.75;869.17;;;;;;;11.61;70.46;102593.00;688770;28;133484;-64
2022/11/13 02:43:04;;;;;;;921.47;858.15;;;;;;;11.60;70.31;102591.31;688701;28;137208;-64
2022/11/13 02:43:44;;;;;;;946.38;882.28;;;;;;;11.58;70.35;102587.00;687610;28;158941;-64
2022/11/13 02:44:25;;;;;;;923.35;860.15;;;;;;;11.59;70.58;102591.44;688797;28;137485;-64
2022/11/13 02:45:06;;;;;;;922.53;859.17;;;;;;;11.58;70.63;102587.84;689287;28;119371;-64
2022/11/13 02:45:45;;;;;;;940.88;877.00;;;;;;;11.59;70.76;102586.03;688802;28;137514;-64
2022/11/13 02:46:26;;;;;;;926.60;863.13;;;;;;;11.60;70.42;102587.72;688474;28;135916;-64
2022/11/13 02:47:05;;;;;;;913.60;850.17;;;;;;;11.60;70.67;102583.19;690051;28;160632;-64
2022/11/13 02:47:46;;;;;;;934.78;870.92;;;;;;;11.61;70.42;102587.59;691467;28;138048;-64
2022/11/13 02:48:26;;;;;;;924.55;861.20;;;;;;;11.60;70.63;102590.44;691579;28;135965;-64
2022/11/13 02:49:07;;;;;;;924.78;861.47;;;;;;;11.59;70.54;102578.75;690605;28;156235;-64
2022/11/13 02:49:47;;;;;;;937.30;873.70;;;;;;;11.59;70.79;102573.34;691283;28;137608;-64
2022/11/13 02:50:35;;;;;;;907.15;844.42;;;;;;;11.60;70.67;102580.47;694238;28;61586;-64
2022/11/13 02:51:15;;;;;;;926.60;863.10;;;;;;;11.58;70.50;102577.03;688731;28;137039;-64
2022/11/13 02:51:56;;;;;;;947.65;883.47;;;;;;;11.60;70.80;102582.31;691524;28;137367;-64
2022/11/13 02:52:36;;;;;;;931.95;868.45;;;;;;;11.59;70.65;102578.75;691472;28;135775;-64
2022/11/13 02:53:15;;;;;;;925.55;862.15;;;;;;;11.58;70.52;102582.44;691500;28;137729;-64
2022/11/13 02:53:56;;;;;;;918.00;854.80;;;;;;;11.59;70.94;102580.63;689780;28;180065;-64
2022/11/13 02:54:36;;;;;;;913.72;850.67;;;;;;;11.59;70.52;102572.50;689677;28;160556;-64
2022/11/13 02:55:17;;;;;;;933.45;869.75;;;;;;;11.60;70.46;102577.78;688708;28;136971;-64
2022/11/13 02:55:58;;;;;;;919.22;856.00;;;;;;;11.61;70.08;102573.19;688753;28;135910;-64
2022/11/13 02:56:37;;;;;;;903.55;840.88;;;;;;;11.58;70.42;102571.63;688758;28;137853;-63
2022/11/13 02:57:18;;;;;;;932.08;868.08;;;;;;;11.60;70.12;102568.78;688446;28;137192;-64
2022/11/13 02:57:58;;;;;;;907.75;845.05;;;;;;;11.62;70.34;102572.22;688736;28;137701;-63
2022/11/13 02:58:37;;;;;;;919.28;856.22;;;;;;;11.59;70.19;102570.63;687553;28;159292;-63
2022/11/13 02:59:19;;;;;;;928.63;865.13;;;;;;;11.61;70.33;102565.09;688498;28;138144;-63
2022/11/13 02:59:58;;;;;;;926.42;862.92;;;;;;;11.61;70.17;102567.78;688787;28;137590;-64
2022/11/13 03:00:38;;;;;;;909.58;846.67;;;;;;;11.62;70.38;102564.94;688633;28;135793;-63
2022/11/13 03:01:19;;;;;;;931.42;867.75;;;;;;;11.63;69.81;102566.66;688609;28;135020;-63
2022/11/13 03:01:59;;;;;;;924.63;861.30;;;;;;;11.63;70.36;102568.50;688739;28;136767;-63
2022/11/13 03:02:40;;;;;;;923.00;859.70;;;;;;;11.64;70.06;102570.22;688708;28;136852;-64
2022/11/13 03:03:19;;;;;;;918.45;855.28;;;;;;;11.64;70.42;102572.94;688579;28;136011;-64